Time;durP1;ratioP1;P1;durP2;ratioP2;P2;SDS_P1;SDS_P2;PMS_P1;PMS_P2;Temp;Humidity;BMP_temperature;BMP_pressure;BME280_temperature;BME280_humidity;BME280_pressure;Samples;Min_cycle;Max_cycle;Signal;HPM_P1;HPM_P2
2022/02/10 00:06:57;;;;;;;9.55;6.65;;;;;;;8.77;62.54;99795.06;1729570;80;21427;-55
2022/02/10 00:15:21;;;;;;;14.33;6.92;;;;;;;8.68;71.17;99783.59;1716162;81;22259;-58
2022/02/10 00:17:40;;;;;;;10.32;6.45;;;;;;;8.91;69.69;99778.01;1727503;80;21442;-56
2022/02/10 00:20:15;;;;;;;12.60;7.03;;;;;;;8.69;70.82;99776.12;1723194;81;21423;-54
2022/02/10 00:36:11;;;;;;;11.70;6.75;;;;;;;8.75;90.09;99754.94;1669801;81;20430;-53
2022/02/10 00:38:40;;;;;;;10.80;7.05;;;;;;;8.82;85.84;99752.13;1723632;81;21525;-53
2022/02/10 00:41:04;;;;;;;12.05;6.37;;;;;;;-144.96;100.00;113563.53;1726721;81;22163;-53
2022/02/10 10:25:53;;;;;;;8.75;7.80;;;;;;;;;;1778792;79;122423;-59
2022/02/10 10:45:24;;;;;;;7.72;6.95;;;;;;;;;;1711611;82;23844;-57
2022/02/10 10:48:33;;;;;;;8.87;8.07;;;;;;;;;;1694228;82;22177;-58
2022/02/10 10:50:15;;;;;;;9.33;7.90;;;;;;;;;;1691101;83;21478;-58
2022/02/10 10:52:51;;;;;;;8.18;7.37;;;;;;;;;;1720433;80;21923;-59
2022/02/10 10:55:30;;;;;;;7.83;7.12;;;;;;;;;;1707341;82;21500;-59
2022/02/10 10:57:40;;;;;;;8.95;8.05;;;;;;;;;;1731851;80;23707;-57
2022/02/10 11:38:32;;;;;;;8.30;7.42;;;;;;;;;;1745192;80;23156;-58
2022/02/10 11:43:41;;;;;;;9.40;8.48;;;;;;;;;;1729163;81;21440;-57
2022/02/10 14:09:11;;;;;;;11.00;8.23;;;;;;;;;;1711024;81;22581;-56
2022/02/10 14:16:57;;;;;;;9.63;8.60;;;;;;;;;;1734402;81;21610;-57
2022/02/10 14:19:36;;;;;;;10.95;9.00;;;;;;;;;;1738490;81;21399;-57
2022/02/10 14:27:18;;;;;;;11.38;8.88;;;;;;;;;;1733409;80;21390;-58
2022/02/10 14:29:45;;;;;;;10.82;8.30;;;;;;;;;;1736102;81;21533;-57
2022/02/10 14:32:13;;;;;;;9.83;8.80;;;;;;;;;;1738331;81;21495;-57
2022/02/10 14:34:39;;;;;;;10.03;8.35;;;;;;;;;;1739743;80;23043;-57
2022/02/10 14:39:58;;;;;;;9.23;7.80;;;;;;;;;;1740223;81;21343;-57
2022/02/10 15:13:26;;;;;;;10.50;8.90;;;;;;;;;;1735029;81;20996;-57
2022/02/10 15:50:15;;;;;;;18.70;13.83;;;;;;;;;;1738536;81;21401;-56
2022/02/10 15:52:55;;;;;;;17.48;10.53;;;;;;;;;;1736258;81;20965;-56
2022/02/10 16:11:01;;;;;;;16.07;12.93;;;;;;;;;;1741121;81;21432;-57
2022/02/10 16:14:35;;;;;;;15.53;11.25;;;;;;;;;;1740673;81;20981;-57
2022/02/10 16:18:50;;;;;;;11.12;9.58;;;;;;;;;;1739302;81;21599;-60
2022/02/10 16:21:14;;;;;;;12.82;11.53;;;;;;;;;;1739175;81;22463;-57
2022/02/10 16:23:40;;;;;;;13.83;10.10;;;;;;;;;;1741255;81;21537;-56
2022/02/10 16:26:18;;;;;;;13.35;10.40;;;;;;;;;;1731952;81;21460;-57
2022/02/10 16:28:44;;;;;;;14.45;11.55;;;;;;;;;;1642535;85;21595;-57
2022/02/10 16:31:11;;;;;;;17.47;10.87;;;;;;;;;;1691540;83;21472;-57
2022/02/10 16:33:38;;;;;;;20.60;13.32;;;;;;;;;;1726419;80;22280;-57
2022/02/10 16:36:05;;;;;;;20.35;13.43;;;;;;;;;;1721233;80;21418;-57
2022/02/10 16:38:32;;;;;;;16.25;12.78;;;;;;;;;;1725086;82;21408;-56
2022/02/10 16:40:58;;;;;;;16.17;11.75;;;;;;;;;;1727955;82;21174;-56
2022/02/10 16:43:24;;;;;;;13.93;11.95;;;;;;;;;;1727073;82;21633;-57
2022/02/10 16:45:51;;;;;;;14.35;11.43;;;;;;;;;;1726708;82;22652;-57
2022/02/10 16:48:17;;;;;;;17.07;14.20;;;;;;;;;;1726881;81;21056;-57
2022/02/10 16:50:45;;;;;;;16.93;13.98;;;;;;;;;;1725537;82;21468;-57
2022/02/10 16:53:14;;;;;;;16.10;13.30;;;;;;;;;;1720919;82;21489;-57
2022/02/10 16:55:54;;;;;;;12.00;10.28;;;;;;;;;;1726298;82;21536;-57
2022/02/10 17:01:12;;;;;;;;;;;;;;;;;;1725451;81;20938;-56
2022/02/10 17:14:10;;;;;;;16.20;13.43;;;;;;;;;;1724383;82;21450;-57
2022/02/10 17:32:48;;;;;;;18.37;13.72;;;;;;;;;;1724403;82;21447;-57
2022/02/10 17:35:17;;;;;;;17.35;13.65;;;;;;;;;;1723423;82;21544;-56
2022/02/10 17:53:51;;;;;;;18.82;14.78;;;;;;;;;;1726936;82;21479;-55
2022/02/10 17:56:17;;;;;;;21.20;15.20;;;;;;;;;;1722560;81;21589;-55
2022/02/10 17:58:43;;;;;;;19.12;14.93;;;;;;;;;;1726255;82;21471;-56
2022/02/10 18:01:10;;;;;;;19.37;14.45;;;;;;;;;;1726388;82;20922;-55
2022/02/10 18:03:36;;;;;;;18.73;15.15;;;;;;;;;;1723773;81;22366;-55
2022/02/10 18:08:40;;;;;;;18.87;15.95;;;;;;;;;;1725582;82;21476;-55
2022/02/10 18:13:59;;;;;;;20.75;15.30;;;;;;;;;;1726146;81;21603;-55
2022/02/10 18:19:05;;;;;;;19.05;15.55;;;;;;;;;;1724260;82;21493;-55
2022/02/10 18:21:51;;;;;;;20.97;16.00;;;;;;;;;;1725694;82;21524;-56
2022/02/10 18:29:33;;;;;;;22.77;16.07;;;;;;;;;;1724284;81;21428;-56
2022/02/10 18:35:55;;;;;;;21.62;16.25;;;;;;;;;;1726036;82;20228;-54
2022/02/10 19:09:07;;;;;;;22.98;17.67;;;;;;;;;;1687089;81;22687;-56
2022/02/10 19:11:28;;;;;;;21.97;17.12;;;;;;;;;;1725981;80;20957;-57
2022/02/10 19:13:56;;;;;;;23.95;17.98;;;;;;;;;;1717451;80;20994;-56
2022/02/10 19:16:23;;;;;;;23.98;18.12;;;;;;;;;;1720826;80;21481;-56
2022/02/10 19:18:49;;;;;;;26.40;19.27;;;;;;;;;;1718167;80;21561;-56
2022/02/10 19:21:15;;;;;;;34.98;22.90;;;;;;;;;;1720566;80;21767;-56
2022/02/10 19:23:42;;;;;;;26.93;19.35;;;;;;;;;;1719640;80;21479;-56
2022/02/10 19:26:08;;;;;;;25.60;19.82;;;;;;;;;;1727149;81;21543;-56
2022/02/10 19:28:34;;;;;;;26.15;19.02;;;;;;;;;;1719200;81;21460;-56
2022/02/10 19:31:02;;;;;;;26.52;20.20;;;;;;;;;;1718350;81;21445;-55
2022/02/10 19:33:28;;;;;;;28.20;19.32;;;;;;;;;;1723400;81;22309;-55
2022/02/10 19:35:54;;;;;;;27.13;19.95;;;;;;;;;;1716079;82;21485;-56
2022/02/10 19:38:23;;;;;;;22.48;17.20;;;;;;;;;;1719313;81;21374;-56
2022/02/10 19:40:54;;;;;;;25.57;19.90;;;;;;;;;;1717409;81;21474;-56
2022/02/10 19:43:21;;;;;;;24.30;17.82;;;;;;;;;;1718860;82;20933;-57
2022/02/10 19:45:47;;;;;;;24.20;18.30;;;;;;;;;;1719739;82;22320;-55
2022/02/10 19:48:14;;;;;;;25.35;19.55;;;;;;;;;;1711141;82;21476;-59
2022/02/10 19:50:41;;;;;;;26.90;18.65;;;;;;;;;;1720164;82;21502;-57
2022/02/10 19:53:10;;;;;;;19.85;16.95;;;;;;;;;;1716782;82;21450;-56
2022/02/10 19:55:38;;;;;;;23.98;19.23;;;;;;;;;;1717543;81;21550;-56
2022/02/10 19:58:08;;;;;;;23.73;18.70;;;;;;;;;;1727394;81;22276;-56
2022/02/10 20:00:37;;;;;;;26.52;18.48;;;;;;;;;;1719049;82;20977;-56
2022/02/10 20:03:07;;;;;;;23.47;19.32;;;;;;;;;;1714965;82;20902;-56
2022/02/10 20:05:29;;;;;;;24.87;19.17;;;;;;;;;;1715706;82;21447;-56
2022/02/10 20:07:56;;;;;;;27.52;19.07;;;;;;;;;;1719622;81;21550;-56
2022/02/10 20:10:23;;;;;;;28.00;18.97;;;;;;;;;;1714555;81;22232;-57
2022/02/10 20:12:49;;;;;;;22.30;17.80;;;;;;;;;;1719381;81;21419;-57
2022/02/10 20:15:15;;;;;;;26.52;18.62;;;;;;;;;;1715925;82;21361;-57
2022/02/10 20:17:42;;;;;;;21.05;16.87;;;;;;;;;;1715539;82;21170;-57
2022/02/10 20:20:08;;;;;;;24.63;17.55;;;;;;;;;;1718035;81;21623;-57
2022/02/10 20:22:39;;;;;;;20.03;16.97;;;;;;;;;;1714520;82;22251;-57
2022/02/10 20:25:05;;;;;;;22.80;17.65;;;;;;;;;;1714733;81;21563;-57
2022/02/10 20:27:32;;;;;;;23.45;17.32;;;;;;;;;;1725393;82;21445;-57
2022/02/10 20:29:58;;;;;;;22.50;16.20;;;;;;;;;;1725208;81;21456;-57
2022/02/10 20:32:25;;;;;;;20.68;16.85;;;;;;;;;;1726068;82;21471;-57
2022/02/10 20:34:51;;;;;;;22.75;17.67;;;;;;;;;;1723925;81;22420;-57
2022/02/10 20:37:17;;;;;;;20.52;16.15;;;;;;;;;;1702998;82;21348;-58
2022/02/10 20:39:44;;;;;;;23.95;17.32;;;;;;;;;;1717045;81;21555;-57
2022/02/10 20:42:16;;;;;;;22.02;16.30;;;;;;;;;;1725715;80;21605;-57
2022/02/10 20:44:42;;;;;;;21.60;16.40;;;;;;;;;;1724314;80;21499;-57
2022/02/10 20:47:07;;;;;;;22.45;17.25;;;;;;;;;;1730065;80;22294;-57
2022/02/10 20:49:33;;;;;;;19.40;15.35;;;;;;;;;;1724408;80;21554;-56
2022/02/10 20:51:59;;;;;;;22.20;16.77;;;;;;;;;;1726609;81;20950;-57
2022/02/10 20:54:29;;;;;;;17.60;15.25;;;;;;;;;;1726482;80;21514;-57
2022/02/10 20:56:55;;;;;;;21.10;15.88;;;;;;;;;;1719061;82;21484;-57
2022/02/10 20:59:34;;;;;;;20.15;15.98;;;;;;;;;;1721087;80;22691;-57
2022/02/10 21:02:16;;;;;;;18.65;15.58;;;;;;;;;;1721269;80;21451;-56
2022/02/10 21:04:31;;;;;;;22.10;16.60;;;;;;;;;;1722852;80;21509;-56
2022/02/10 21:09:36;;;;;;;21.15;16.35;;;;;;;;;;1723609;81;21562;-56
2022/02/10 21:11:55;;;;;;;19.40;15.40;;;;;;;;;;1725430;81;22669;-56
2022/02/10 21:14:20;;;;;;;21.50;15.50;;;;;;;;;;1718097;80;21368;-56
2022/02/10 21:16:47;;;;;;;18.80;14.75;;;;;;;;;;1722832;80;21535;-57
2022/02/10 21:19:17;;;;;;;20.35;15.60;;;;;;;;;;1721844;80;21126;-58
2022/02/10 21:21:45;;;;;;;19.62;16.15;;;;;;;;;;1723941;80;21490;-57
2022/02/10 21:24:14;;;;;;;21.55;15.78;;;;;;;;;;1717747;80;23167;-57
2022/02/10 21:26:57;;;;;;;22.45;16.07;;;;;;;;;;1728737;82;21368;-56
2022/02/10 21:29:07;;;;;;;21.00;15.13;;;;;;;;;;1733555;82;21494;-57
2022/02/10 21:31:42;;;;;;;18.25;15.50;;;;;;;;;;1738724;81;21452;-57
2022/02/10 21:34:14;;;;;;;19.17;14.87;;;;;;;;;;1737989;81;21463;-56
2022/02/10 21:42:30;;;;;;;18.92;15.48;;;;;;;;;;1740713;81;21474;-57
2022/02/10 21:55:31;;;;;;;24.45;17.32;;;;;;;;;;1740459;81;21419;-58
2022/02/10 22:19:20;;;;;;;20.45;15.90;;;;;;;;;;1731633;81;20967;-57
2022/02/10 22:21:58;;;;;;;24.92;15.38;;;;;;;;;;1740093;81;21522;-57
2022/02/10 22:24:20;;;;;;;20.12;15.98;;;;;;;;;;1733747;82;21486;-58
2022/02/10 22:26:48;;;;;;;;;;;;;;;;;;1740248;81;21519;-57
2022/02/10 22:29:26;;;;;;;19.52;13.90;;;;;;;;;;1728514;82;21688;-57
2022/02/10 22:34:36;;;;;;;19.48;13.38;;;;;;;;;;1718787;82;21018;-56
2022/02/10 22:37:00;;;;;;;19.73;13.98;;;;;;;;;;1723883;82;21391;-55
2022/02/10 22:41:49;;;;;;;17.05;14.18;;;;;;;;;;1780379;78;23147;-57
2022/02/10 22:44:15;;;;;;;15.23;12.65;;;;;;;;;;1767960;80;21328;-57
2022/02/10 22:46:42;;;;;;;19.70;14.45;;;;;;;;;;1772591;80;22644;-57
2022/02/10 22:49:08;;;;;;;17.75;14.33;;;;;;;;;;1773762;80;21934;-57
2022/02/10 22:51:35;;;;;;;20.23;14.23;;;;;;;;;;1768305;80;21499;-58
2022/02/10 22:54:02;;;;;;;17.12;13.28;;;;;;;;;;1763951;80;21396;-57
2022/02/10 22:56:29;;;;;;;17.05;13.65;;;;;;;;;;1762801;80;21498;-58
2022/02/10 22:58:56;;;;;;;16.07;13.05;;;;;;;;;;1767060;80;22667;-58
2022/02/10 23:01:22;;;;;;;14.73;12.85;;;;;;;;;;1710706;82;20995;-57
2022/02/10 23:03:49;;;;;;;14.45;12.78;;;;;;;;;;1693256;81;21565;-57
2022/02/10 23:06:16;;;;;;;;;;;;;;;;;;1704365;83;21454;-58
2022/02/10 23:08:42;;;;;;;17.87;12.65;;;;;;;;;;1707196;82;20760;-57
2022/02/10 23:11:11;;;;;;;16.10;12.85;;;;;;;;;;1718262;81;21511;-58
2022/02/10 23:13:43;;;;;;;14.87;12.82;;;;;;;;;;1731014;81;21366;-58
2022/02/10 23:16:06;;;;;;;15.00;12.55;;;;;;;;;;1735944;81;21396;-57
2022/02/10 23:18:33;;;;;;;14.87;12.43;;;;;;;;;;1713131;81;21624;-57
2022/02/10 23:21:01;;;;;;;15.55;12.23;;;;;;;;;;1701850;83;27353;-57
2022/02/10 23:23:29;;;;;;;15.18;12.53;;;;;;;;;;1702401;83;21738;-57
2022/02/10 23:25:55;;;;;;;18.12;13.68;;;;;;;;;;1700105;83;21402;-57
2022/02/10 23:28:25;;;;;;;15.68;13.20;;;;;;;;;;1745291;80;20988;-58
2022/02/10 23:30:52;;;;;;;15.58;13.00;;;;;;;;;;1733272;80;21649;-57
2022/02/10 23:33:23;;;;;;;15.78;12.82;;;;;;;;;;1725043;82;21063;-57
2022/02/10 23:38:39;;;;;;;16.55;12.43;;;;;;;;;;1751680;80;21458;-56
2022/02/10 23:43:40;;;;;;;13.68;11.90;;;;;;;;;;1711210;82;21538;-57
2022/02/10 23:46:07;;;;;;;14.45;11.75;;;;;;;;;;1758450;80;20958;-56
2022/02/10 23:48:33;;;;;;;17.10;12.45;;;;;;;;;;1766988;80;22360;-57
2022/02/10 23:51:00;;;;;;;16.10;11.87;;;;;;;;;;1759045;80;21902;-57
2022/02/10 23:53:27;;;;;;;15.85;12.78;;;;;;;;;;1762325;80;21531;-57
2022/02/10 23:55:54;;;;;;;15.68;12.45;;;;;;;;;;1758752;80;20934;-57
